Airfield :
LOGIN :

Register | Disclaimer

   EN    FR    IT 

 










Legend :    VFR   Marginal VFR   IFR   Intensive IFR   Very Intensive IFR
Visi :
Ceiling :
>= 8 km
>= 3000ft
5 to 8 km
1000 to 3000 ft
1500m to 5 km
500 to 1000 ft
800 to 1500m
200 to 500 ft
< 800m
< 200 ft
Symbols :   Thunderstorms  Fog  Heavy snow  Heavy precipitations  Wind > 20 kt
SIGMETs :     Misc.  Thunderstorms  Icing  Turbulence  Mountain Waves  Volcanic Ashes






- Airport Elevation : 499 ft
- IATA code : TLS


LFBO - Toulouse / Blagnac

CURRENT METAR :
  • 250800Z AUTO VRB02KT 8000 -RA FEW019/// SCT026/// BKN032/// ///TCU 06/05 Q1009 TEMPO 4000 RA BKN008

EXPIRED METARs :
  • 250730Z AUTO VRB02KT 9999 -RA FEW016 SCT024 OVC038 06/05 Q1008 TEMPO 4000 RA BKN008
  • 250700Z AUTO 02003KT 340V060 7000 -RA BKN013 OVC019 06/05 Q1008 TEMPO 4000 RA BKN008
  • 250630Z AUTO 03005KT 360V060 9999 -RA OVC008 06/05 Q1008 TEMPO 4000 RA
  • 250600Z AUTO 31010KT 9999 -RA SCT011 SCT018 BKN029 07/06 Q1007 TEMPO 4000 RA BKN008
  • 250530Z AUTO 31015KT 8000 -RA FEW009 OVC026 07/06 Q1007 TEMPO 4000 RA BKN008

TAF TAF LFBO
Valid from the 25 at 06:00 until the 26 at 12:00 UTC


250500Z 2506/2612 31010KT 9999 FEW011 SCT018 BKN030
PROB40
TEMPO 2506/2510 4000 RA BKN008
BECMG 2510/2512 SCT025 BKN040
PROB30
TEMPO 2510/2514 4000 SHRA BKN012 SCT020TCU
BECMG 2515/2517 CAVOK
BECMG 2522/2524 VRB03KT
PROB30
TEMPO 2602/2608 4000 BR
ATIS : +33 5 62 74 66 36



MET'MAP, your aeronautical weather chart ! - Copyright ORBIFLY December 2007 - Disclaimer

ORBIFLY MET'MAP TEAM :

Programming & Development : Alexandra Zaïnal
Concept & original design : Baudouin d'Aumeries
Assistance for programming : Marc-Olivier Méhu
Technical & hardware support : Manuel Goepfert

Contact : metmap@orbifly.com




SOURCES & CREDITS :

   NOAA